createdAt,value
2018-01-17T11:25:03.032Z,98019.28
2018-01-17T11:27:31.823Z,97994.45
2018-01-17T11:30:03.719Z,98006.14
2018-01-17T11:32:31.452Z,98002.06
2018-01-17T11:35:00.034Z,98003.63
2018-01-17T11:37:27.983Z,97986.79
2018-01-17T11:39:58.632Z,97970.11
2018-01-17T11:42:28.108Z,97974.97
2018-01-17T11:44:56.615Z,97971.87
2018-01-17T11:47:26.535Z,97975.16
2018-01-17T11:49:55.111Z,97959.00
2018-01-17T11:52:25.435Z,97947.33
2018-01-17T11:54:53.558Z,97949.00
2018-01-17T11:57:21.666Z,97942.80
2018-01-17T11:59:49.823Z,97927.92
2018-01-17T12:02:20.791Z,97934.43
2018-01-17T12:04:48.810Z,97923.78
2018-01-17T12:07:18.077Z,97920.91
2018-01-17T12:09:46.110Z,97898.42
2018-01-17T12:12:14.307Z,97891.95
2018-01-17T12:14:42.421Z,97890.45
2018-01-17T12:17:10.154Z,97900.75
2018-01-17T12:19:42.211Z,97896.06
2018-01-17T12:22:14.320Z,97892.72
2018-01-17T12:24:43.150Z,97876.80
2018-01-17T12:27:12.060Z,97866.97
2018-01-17T12:29:42.188Z,97872.78
2018-01-17T12:32:12.087Z,97877.08
2018-01-17T12:34:39.853Z,97862.82
2018-01-17T12:37:12.406Z,97852.11
2018-01-17T12:39:44.292Z,97863.73
2018-01-17T12:42:12.118Z,97856.58
2018-01-17T12:44:39.833Z,97846.47
2018-01-17T12:47:08.066Z,97846.23
2018-01-17T12:49:35.979Z,97815.00
2018-01-17T12:52:03.733Z,97829.22
2018-01-17T12:54:33.948Z,97829.47
2018-01-17T12:57:01.708Z,97794.24
2018-01-17T12:59:34.382Z,97814.27
2018-01-17T13:02:04.806Z,97810.15
2018-01-17T13:04:32.747Z,97807.02
2018-01-17T13:07:07.200Z,97814.00
2018-01-17T13:09:35.260Z,97821.51
2018-01-17T13:12:03.219Z,97810.87
2018-01-17T13:14:31.169Z,97801.75
2018-01-17T13:16:59.052Z,97774.98
2018-01-17T13:19:27.143Z,97782.73
2018-01-17T13:21:59.318Z,97754.85
2018-01-17T13:24:27.463Z,97759.84
2018-01-17T13:26:57.699Z,97732.83
2018-01-17T13:29:25.687Z,97738.35
2018-01-17T13:32:00.820Z,97737.97
2018-01-17T13:34:32.957Z,97729.54
2018-01-17T13:37:05.910Z,97713.31
2018-01-17T13:39:35.989Z,97728.04
2018-01-17T13:42:03.892Z,97698.61
2018-01-17T13:44:35.910Z,97684.43
2018-01-17T13:47:05.834Z,97686.84
2018-01-17T13:49:34.572Z,97672.12
2018-01-17T13:52:02.276Z,97671.77
2018-01-17T13:54:30.105Z,97667.60
2018-01-17T13:57:02.944Z,97641.80
2018-01-17T13:59:31.090Z,97628.34
2018-01-17T14:01:59.525Z,97625.08
2018-01-17T14:04:32.155Z,97642.20
2018-01-17T14:06:59.982Z,97659.48
2018-01-17T14:09:28.448Z,97633.06
2018-01-17T14:11:58.525Z,97632.78
2018-01-17T14:14:26.779Z,97636.53
2018-01-17T14:16:55.884Z,97643.58
2018-01-17T14:19:24.469Z,97635.92
2018-01-17T14:21:53.893Z,97618.34
2018-01-17T14:24:22.297Z,97608.75
2018-01-17T14:26:50.026Z,97602.41
2018-01-17T14:29:19.200Z,97591.19
2018-01-17T14:31:47.409Z,97581.35
2018-01-17T14:34:16.071Z,97617.71
2018-01-17T14:36:48.123Z,97590.88
2018-01-17T14:39:17.216Z,97552.98
2018-01-17T14:41:48.021Z,97584.05
2018-01-17T14:44:15.764Z,97573.06
2018-01-17T14:46:44.149Z,97602.25
2018-01-17T14:49:12.267Z,97569.86
2018-01-17T14:51:40.250Z,97574.25
2018-01-17T14:54:10.165Z,97543.83
2018-01-17T14:56:37.966Z,97538.49
2018-01-17T14:59:05.732Z,97545.44
2018-01-17T15:01:34.687Z,97530.90
2018-01-17T15:04:02.436Z,97528.76
2018-01-17T15:06:32.115Z,97511.02
2018-01-17T15:09:00.169Z,97542.92
2018-01-17T15:11:28.361Z,97535.14
2018-01-17T15:13:56.363Z,97534.67
2018-01-17T15:16:26.490Z,97507.00
2018-01-17T15:18:54.853Z,97527.39
2018-01-17T15:21:23.081Z,97531.91
2018-01-17T15:23:51.307Z,97502.48
2018-01-17T15:26:19.075Z,97495.95
2018-01-17T15:28:51.181Z,97493.82
2018-01-17T15:31:18.806Z,97494.67
2018-01-17T15:33:46.589Z,97482.52
2018-01-17T15:36:14.226Z,97506.94
2018-01-17T15:38:44.352Z,97520.26
2018-01-17T15:41:13.397Z,97514.16
2018-01-17T15:43:43.311Z,97524.17
2018-01-17T15:46:13.472Z,97495.50
2018-01-17T15:48:43.710Z,97507.29
2018-01-17T15:51:13.920Z,97520.33
2018-01-17T15:53:42.602Z,97533.23
2018-01-17T15:56:12.861Z,97516.28
2018-01-17T15:58:41.003Z,97508.92
2018-01-17T16:01:09.276Z,97510.13
2018-01-17T16:03:37.210Z,97520.66
2018-01-17T16:06:05.176Z,97507.63
2018-01-17T16:08:33.400Z,97491.92
2018-01-17T16:11:01.803Z,97516.75
2018-01-17T16:13:29.926Z,97512.38
2018-01-17T16:15:58.009Z,97496.30
2018-01-17T16:18:26.128Z,97488.95
2018-01-17T16:20:54.294Z,97500.88
2018-01-17T16:23:22.220Z,97505.19
2018-01-17T16:25:54.593Z,97486.47
2018-01-17T16:28:22.814Z,97489.15
2018-01-17T16:30:50.780Z,97482.21
2018-01-17T16:33:20.023Z,97467.04
2018-01-17T16:35:48.260Z,97497.59
2018-01-17T16:38:18.501Z,97464.90
2018-01-17T16:40:46.442Z,97474.08
2018-01-17T16:43:14.632Z,97456.05
2018-01-17T16:45:44.573Z,97433.42
2018-01-17T16:48:13.056Z,97441.48
2018-01-17T16:50:47.192Z,97445.80
2018-01-17T16:53:16.317Z,97439.23
2018-01-17T16:55:45.935Z,97464.96
2018-01-17T16:58:14.124Z,97428.86
2018-01-17T17:00:42.092Z,97430.63
2018-01-17T17:03:10.280Z,97422.41
2018-01-17T17:05:43.701Z,97417.67
2018-01-17T17:08:11.561Z,97397.98
2018-01-17T17:10:42.292Z,97406.28
2018-01-17T17:13:11.429Z,97415.17
2018-01-17T17:15:39.662Z,97402.08
2018-01-17T17:18:10.825Z,97403.92
2018-01-17T17:20:39.481Z,97383.55
2018-01-17T17:23:07.861Z,97396.99
2018-01-17T17:25:36.119Z,97375.20
2018-01-17T17:28:05.231Z,97365.34
2018-01-17T17:30:33.377Z,97354.58
2018-01-17T17:33:01.793Z,97338.10
2018-01-17T17:35:34.059Z,97349.94
2018-01-17T17:38:01.871Z,97360.60
2018-01-17T17:40:30.387Z,97371.99
2018-01-17T17:42:58.411Z,97352.86
2018-01-17T17:45:26.643Z,97355.94
2018-01-17T17:47:54.597Z,97362.40
2018-01-17T17:50:23.091Z,97353.38
2018-01-17T17:52:58.866Z,97341.23
2018-01-17T17:55:28.603Z,97333.72
2018-01-17T17:57:56.720Z,97319.44
2018-01-17T18:00:26.751Z,97329.09
2018-01-17T18:02:56.041Z,97346.91
2018-01-17T18:05:24.493Z,97329.92
2018-01-17T18:07:52.558Z,97323.88
2018-01-17T18:10:20.880Z,97314.36
2018-01-17T18:12:50.088Z,97312.63
2018-01-17T18:15:20.756Z,97307.42
2018-01-17T18:17:48.645Z,97300.07
2018-01-17T18:20:18.697Z,97288.70
2018-01-17T18:22:47.070Z,97281.05
2018-01-17T18:25:15.013Z,97293.61
2018-01-17T18:27:42.955Z,97290.66
2018-01-17T18:30:12.871Z,97283.19
2018-01-17T18:32:41.710Z,97256.70
2018-01-17T18:35:09.760Z,97253.27
2018-01-17T18:37:40.757Z,97246.33
2018-01-17T18:40:09.208Z,97241.53
2018-01-17T18:42:38.089Z,97243.80
2018-01-17T18:45:06.458Z,97240.78
2018-01-17T18:47:34.232Z,97232.48
2018-01-17T18:50:04.759Z,97226.03
2018-01-17T18:52:32.911Z,97209.09
2018-01-17T18:55:04.948Z,97226.78
2018-01-17T18:57:34.663Z,97226.31
2018-01-17T19:00:02.656Z,97225.48
2018-01-17T19:02:35.120Z,97224.17
2018-01-17T19:05:04.113Z,97226.31
2018-01-17T19:07:31.797Z,97208.97
2018-01-17T19:09:59.448Z,97204.89
2018-01-17T19:12:28.138Z,97201.32
2018-01-17T19:14:56.606Z,97222.53
2018-01-17T19:17:24.665Z,97219.45
2018-01-17T19:19:54.819Z,97225.08
2018-01-17T19:22:22.671Z,97229.83
2018-01-17T19:24:50.951Z,97225.03
2018-01-17T19:27:18.926Z,97241.42
2018-01-17T19:29:47.002Z,97261.91
2018-01-17T19:32:15.165Z,97253.62
2018-01-17T19:34:43.234Z,97301.73
2018-01-17T19:37:11.217Z,97320.92
2018-01-17T19:39:41.834Z,97330.94
2018-01-17T19:42:16.664Z,97333.55
2018-01-17T19:44:45.040Z,97341.28
2018-01-17T19:47:13.507Z,97340.42
2018-01-17T19:49:44.314Z,97343.08
2018-01-17T19:52:12.506Z,97357.83
2018-01-17T19:54:45.016Z,97366.48
2018-01-17T19:57:14.719Z,97377.44
2018-01-17T19:59:42.991Z,97383.17
2018-01-17T20:02:12.040Z,97390.11
2018-01-17T20:04:41.756Z,97387.63
2018-01-17T20:07:10.695Z,97381.41
2018-01-17T20:09:39.270Z,97397.52
2018-01-17T20:12:07.969Z,97394.72
2018-01-17T20:14:38.078Z,97386.09
2018-01-17T20:17:11.213Z,97388.02
2018-01-17T20:19:39.241Z,97394.05
2018-01-17T20:22:11.311Z,97400.67
2018-01-17T20:24:39.556Z,97390.98
2018-01-17T20:27:07.495Z,97389.61
2018-01-17T20:29:35.817Z,97389.19
2018-01-17T20:32:05.741Z,97386.19
2018-01-17T20:34:37.803Z,97389.00
2018-01-17T20:37:06.580Z,97389.83
2018-01-17T20:39:40.327Z,97390.42
2018-01-17T20:42:08.263Z,97391.67
2018-01-17T20:44:38.380Z,97394.63
2018-01-17T20:47:07.117Z,97383.73
2018-01-17T20:49:35.436Z,97385.35
2018-01-17T20:52:06.588Z,97396.24
2018-01-17T20:54:34.815Z,97398.02
2018-01-17T20:57:04.887Z,97405.48
2018-01-17T20:59:34.514Z,97408.80
2018-01-17T21:02:03.234Z,97399.38
2018-01-17T21:04:31.857Z,97401.88
2018-01-17T21:07:00.616Z,97401.34
2018-01-17T21:09:28.920Z,97410.76
2018-01-17T21:11:59.140Z,97412.13
2018-01-17T21:14:28.119Z,97422.19
2018-01-17T21:16:56.227Z,97420.05
2018-01-17T21:19:25.188Z,97422.09
2018-01-17T21:21:53.133Z,97422.84
2018-01-17T21:24:21.524Z,97430.49
2018-01-17T21:26:49.407Z,97430.31
2018-01-17T21:29:18.581Z,97436.78
2018-01-17T21:31:46.521Z,97437.95
2018-01-17T21:34:14.711Z,97443.22
2018-01-17T21:36:42.676Z,97448.55
2018-01-17T21:39:10.869Z,97444.18
2018-01-17T21:41:38.807Z,97439.20
2018-01-17T21:47:13.949Z,97444.00
2018-01-17T21:49:45.663Z,97451.45
2018-01-17T21:52:18.466Z,97455.27
2018-01-17T21:54:46.694Z,97459.71
2018-01-17T21:57:16.711Z,97456.15
2018-01-17T21:59:44.352Z,97461.70
2018-01-17T22:02:12.471Z,97463.13
2018-01-17T22:04:48.525Z,97462.56
2018-01-17T22:07:16.770Z,97458.88
2018-01-17T22:09:44.984Z,97460.08
2018-01-17T22:12:13.225Z,97453.48
2018-01-17T22:14:41.118Z,97456.36
2018-01-17T22:17:09.494Z,97454.16
2018-01-17T22:19:37.264Z,97453.26
2018-01-17T22:22:11.240Z,97459.78
2018-01-17T22:24:39.429Z,97463.58
2018-01-17T22:27:07.403Z,97474.42
2018-01-17T22:29:39.692Z,97475.26
2018-01-17T22:32:07.924Z,97479.09
2018-01-17T22:34:40.316Z,97481.29
2018-01-17T22:37:13.731Z,97472.63
2018-01-17T22:39:42.008Z,97483.95
2018-01-17T22:42:09.936Z,97472.23
2018-01-17T22:44:40.253Z,97478.80
2018-01-17T22:47:08.217Z,97487.09
2018-01-17T22:49:36.535Z,97489.28
2018-01-17T22:52:04.708Z,97491.96
2018-01-17T22:54:32.937Z,97485.01
2018-01-17T22:57:00.963Z,97489.80
2018-01-17T22:59:28.894Z,97494.20
2018-01-17T23:01:57.197Z,97501.13
2018-01-17T23:04:25.062Z,97501.60
2018-01-17T23:06:55.191Z,97502.48
2018-01-17T23:09:22.999Z,97503.84
2018-01-17T23:11:50.821Z,97502.14
2018-01-17T23:14:20.996Z,97504.38
2018-01-17T23:16:49.206Z,97512.72
2018-01-17T23:19:17.142Z,97515.38
2018-01-17T23:21:45.368Z,97521.91
2018-01-17T23:24:17.822Z,97522.38
2018-01-17T23:26:46.064Z,97529.02
2018-01-17T23:29:18.285Z,97524.15
2018-01-17T23:31:46.805Z,97526.39
2018-01-17T23:34:16.879Z,97512.89
2018-01-17T23:36:44.935Z,97511.13
2018-01-17T23:39:17.304Z,97508.05
2018-01-17T23:41:46.335Z,97512.79
2018-01-17T23:44:15.346Z,97515.03
2018-01-17T23:46:45.822Z,97520.71
2018-01-17T23:49:13.726Z,97530.78
2018-01-17T23:51:41.719Z,97539.08
2018-01-17T23:54:10.295Z,97539.91
2018-01-17T23:56:39.026Z,97549.02
2018-01-17T23:59:06.864Z,97552.45
